sensor_id;sensor_type;location;lat;lon;timestamp;pressure;altitude;pressure_sealevel;temperature;humidity
17209;BME280;8720;48.488;9.202;2022-11-20T00:01:23;96507.94;;;11.56;55.97
17209;BME280;8720;48.488;9.202;2022-11-20T00:03:52;96515.16;;;11.49;55.92
17209;BME280;8720;48.488;9.202;2022-11-20T00:06:22;96512.78;;;11.43;56.05
17209;BME280;8720;48.488;9.202;2022-11-20T00:08:54;96511.19;;;11.39;56.15
17209;BME280;8720;48.488;9.202;2022-11-20T00:11:24;96513.09;;;11.34;56.16
17209;BME280;8720;48.488;9.202;2022-11-20T00:13:54;96509.72;;;11.31;55.89
17209;BME280;8720;48.488;9.202;2022-11-20T00:16:25;96511.66;;;11.26;56.19
17209;BME280;8720;48.488;9.202;2022-11-20T00:18:54;96505.72;;;11.21;56.21
17209;BME280;8720;48.488;9.202;2022-11-20T00:21:25;96502.50;;;11.13;56.21
17209;BME280;8720;48.488;9.202;2022-11-20T00:23:56;96508.66;;;11.12;56.27
17209;BME280;8720;48.488;9.202;2022-11-20T00:26:25;96510.59;;;11.07;56.22
17209;BME280;8720;48.488;9.202;2022-11-20T00:28:55;96511.59;;;11.03;56.35
17209;BME280;8720;48.488;9.202;2022-11-20T00:31:23;96511.81;;;10.96;56.41
17209;BME280;8720;48.488;9.202;2022-11-20T00:33:50;96515.41;;;10.92;56.27
17209;BME280;8720;48.488;9.202;2022-11-20T00:36:22;96506.31;;;10.78;56.70
17209;BME280;8720;48.488;9.202;2022-11-20T00:38:52;96516.50;;;10.87;56.42
17209;BME280;8720;48.488;9.202;2022-11-20T00:41:20;96518.34;;;10.83;56.55
17209;BME280;8720;48.488;9.202;2022-11-20T00:43:47;96509.72;;;10.80;56.73
17209;BME280;8720;48.488;9.202;2022-11-20T00:46:18;96517.63;;;10.78;56.72
17209;BME280;8720;48.488;9.202;2022-11-20T00:48:48;96523.03;;;10.74;56.66
17209;BME280;8720;48.488;9.202;2022-11-20T00:51:18;96521.44;;;10.68;56.87
17209;BME280;8720;48.488;9.202;2022-11-20T00:53:54;96518.03;;;10.66;56.96
17209;BME280;8720;48.488;9.202;2022-11-20T00:56:22;96519.94;;;10.61;56.89
17209;BME280;8720;48.488;9.202;2022-11-20T00:58:49;96515.56;;;10.62;57.13
17209;BME280;8720;48.488;9.202;2022-11-20T01:01:20;96529.53;;;10.61;57.07
17209;BME280;8720;48.488;9.202;2022-11-20T01:03:52;96532.28;;;10.58;57.18
17209;BME280;8720;48.488;9.202;2022-11-20T01:06:22;96530.59;;;10.55;57.07
17209;BME280;8720;48.488;9.202;2022-11-20T01:08:53;96533.31;;;10.52;57.23
17209;BME280;8720;48.488;9.202;2022-11-20T01:11:24;96534.25;;;10.50;57.14
17209;BME280;8720;48.488;9.202;2022-11-20T01:13:54;96536.00;;;10.49;57.20
17209;BME280;8720;48.488;9.202;2022-11-20T01:16:24;96539.56;;;10.48;57.48
17209;BME280;8720;48.488;9.202;2022-11-20T01:18:55;96534.41;;;10.45;57.35
17209;BME280;8720;48.488;9.202;2022-11-20T01:21:27;96537.22;;;10.39;57.43
17209;BME280;8720;48.488;9.202;2022-11-20T01:23:57;96543.28;;;10.40;57.38
17209;BME280;8720;48.488;9.202;2022-11-20T01:26:30;96543.34;;;10.38;57.53
17209;BME280;8720;48.488;9.202;2022-11-20T01:28:58;96548.69;;;10.35;57.48
17209;BME280;8720;48.488;9.202;2022-11-20T01:31:31;96551.38;;;10.32;57.80
17209;BME280;8720;48.488;9.202;2022-11-20T01:34:00;96549.63;;;10.33;57.62
17209;BME280;8720;48.488;9.202;2022-11-20T01:36:31;96551.38;;;10.32;57.62
17209;BME280;8720;48.488;9.202;2022-11-20T01:39:03;96549.69;;;10.31;57.70
17209;BME280;8720;48.488;9.202;2022-11-20T01:41:33;96554.00;;;10.32;57.63
17209;BME280;8720;48.488;9.202;2022-11-20T01:44:21;96547.06;;;10.31;57.72
17209;BME280;8720;48.488;9.202;2022-11-20T01:46:57;96543.59;;;10.31;57.45
17209;BME280;8720;48.488;9.202;2022-11-20T01:49:34;96544.44;;;10.31;57.48
17209;BME280;8720;48.488;9.202;2022-11-20T01:52:13;96542.72;;;10.30;57.46
17209;BME280;8720;48.488;9.202;2022-11-20T01:54:49;96544.50;;;10.30;57.52
17209;BME280;8720;48.488;9.202;2022-11-20T01:57:25;96541.06;;;10.28;57.63
17209;BME280;8720;48.488;9.202;2022-11-20T02:00:00;96545.44;;;10.27;57.67
17209;BME280;8720;48.488;9.202;2022-11-20T02:02:41;96540.25;;;10.26;57.50
17209;BME280;8720;48.488;9.202;2022-11-20T02:05:20;96544.69;;;10.24;57.41
17209;BME280;8720;48.488;9.202;2022-11-20T02:07:50;96544.72;;;10.22;57.53
17209;BME280;8720;48.488;9.202;2022-11-20T02:10:19;96550.00;;;10.21;57.41
17209;BME280;8720;48.488;9.202;2022-11-20T02:12:46;96549.19;;;10.19;57.36
17209;BME280;8720;48.488;9.202;2022-11-20T02:15:33;96545.81;;;10.15;57.69
17209;BME280;8720;48.488;9.202;2022-11-20T02:18:00;96549.22;;;10.17;57.91
17209;BME280;8720;48.488;9.202;2022-11-20T02:20:27;96538.94;;;10.11;57.72
17209;BME280;8720;48.488;9.202;2022-11-20T02:22:59;96549.84;;;10.25;57.83
17209;BME280;8720;48.488;9.202;2022-11-20T02:25:33;96542.78;;;10.29;57.85
17209;BME280;8720;48.488;9.202;2022-11-20T02:28:03;96540.88;;;10.34;57.97
17209;BME280;8720;48.488;9.202;2022-11-20T02:30:30;96542.34;;;10.42;57.86
17209;BME280;8720;48.488;9.202;2022-11-20T02:32:58;96543.84;;;10.51;57.88
17209;BME280;8720;48.488;9.202;2022-11-20T02:35:44;96548.81;;;10.58;57.77
17209;BME280;8720;48.488;9.202;2022-11-20T02:38:12;96547.72;;;10.65;57.70
17209;BME280;8720;48.488;9.202;2022-11-20T02:40:44;96541.44;;;10.71;57.88
17209;BME280;8720;48.488;9.202;2022-11-20T02:43:11;96544.59;;;10.80;57.49
17209;BME280;8720;48.488;9.202;2022-11-20T02:45:38;96536.56;;;10.86;57.72
17209;BME280;8720;48.488;9.202;2022-11-20T02:48:06;96548.50;;;10.95;57.46
17209;BME280;8720;48.488;9.202;2022-11-20T02:50:37;96543.03;;;11.01;57.24
17209;BME280;8720;48.488;9.202;2022-11-20T02:53:06;96548.13;;;11.06;57.15
17209;BME280;8720;48.488;9.202;2022-11-20T02:55:33;96540.06;;;11.12;57.26
17209;BME280;8720;48.488;9.202;2022-11-20T02:58:02;96535.53;;;11.17;56.96
17209;BME280;8720;48.488;9.202;2022-11-20T03:03:11;96543.13;;;11.24;56.97
17209;BME280;8720;48.488;9.202;2022-11-20T03:05:39;96527.53;;;11.21;56.83
17209;BME280;8720;48.488;9.202;2022-11-20T03:08:08;96535.91;;;11.31;56.79
17209;BME280;8720;48.488;9.202;2022-11-20T03:10:35;96533.22;;;11.34;56.56
17209;BME280;8720;48.488;9.202;2022-11-20T03:13:04;96540.03;;;11.38;56.50
17209;BME280;8720;48.488;9.202;2022-11-20T03:15:31;96527.72;;;11.40;56.42
17209;BME280;8720;48.488;9.202;2022-11-20T03:17:58;96524.22;;;11.41;56.16
17209;BME280;8720;48.488;9.202;2022-11-20T03:20:27;96529.53;;;11.38;56.57
17209;BME280;8720;48.488;9.202;2022-11-20T03:22:54;96538.19;;;11.40;56.27
17209;BME280;8720;48.488;9.202;2022-11-20T03:25:22;96537.31;;;11.41;55.96
17209;BME280;8720;48.488;9.202;2022-11-20T03:27:49;96531.22;;;11.40;55.96
17209;BME280;8720;48.488;9.202;2022-11-20T03:30:18;96528.66;;;11.39;55.97
17209;BME280;8720;48.488;9.202;2022-11-20T03:32:46;96538.31;;;11.37;55.87
17209;BME280;8720;48.488;9.202;2022-11-20T03:35:13;96523.56;;;11.34;55.92
17209;BME280;8720;48.488;9.202;2022-11-20T03:37:40;96530.59;;;11.34;55.93
17209;BME280;8720;48.488;9.202;2022-11-20T03:40:09;96528.81;;;11.34;55.91
17209;BME280;8720;48.488;9.202;2022-11-20T03:42:36;96530.63;;;11.32;55.83
17209;BME280;8720;48.488;9.202;2022-11-20T03:45:13;96537.72;;;11.29;55.83
17209;BME280;8720;48.488;9.202;2022-11-20T03:47:43;96530.94;;;11.23;55.99
17209;BME280;8720;48.488;9.202;2022-11-20T03:50:12;96537.03;;;11.24;55.74
17209;BME280;8720;48.488;9.202;2022-11-20T03:52:40;96527.66;;;11.17;55.82
17209;BME280;8720;48.488;9.202;2022-11-20T03:55:08;96539.53;;;11.27;55.85
17209;BME280;8720;48.488;9.202;2022-11-20T03:57:35;96537.72;;;11.29;55.69
17209;BME280;8720;48.488;9.202;2022-11-20T04:00:03;96539.34;;;11.33;55.72
17209;BME280;8720;48.488;9.202;2022-11-20T04:02:31;96543.69;;;11.34;55.78
17209;BME280;8720;48.488;9.202;2022-11-20T04:04:59;96540.94;;;11.37;55.89
17209;BME280;8720;48.488;9.202;2022-11-20T04:07:26;96551.34;;;11.38;55.90
17209;BME280;8720;48.488;9.202;2022-11-20T04:09:53;96545.97;;;11.43;55.80
17209;BME280;8720;48.488;9.202;2022-11-20T04:12:21;96545.78;;;11.47;55.83
17209;BME280;8720;48.488;9.202;2022-11-20T04:14:48;96535.28;;;11.49;55.60
17209;BME280;8720;48.488;9.202;2022-11-20T04:17:15;96546.50;;;11.52;55.48
17209;BME280;8720;48.488;9.202;2022-11-20T04:19:42;96538.53;;;11.55;55.50
17209;BME280;8720;48.488;9.202;2022-11-20T04:22:10;96532.28;;;11.59;55.39
17209;BME280;8720;48.488;9.202;2022-11-20T04:24:38;96536.56;;;11.62;55.45
17209;BME280;8720;48.488;9.202;2022-11-20T04:27:05;96536.50;;;11.63;55.30
17209;BME280;8720;48.488;9.202;2022-11-20T04:29:32;96535.44;;;11.69;55.22
17209;BME280;8720;48.488;9.202;2022-11-20T04:31:59;96533.63;;;11.71;55.23
17209;BME280;8720;48.488;9.202;2022-11-20T04:34:26;96536.16;;;11.74;55.46
17209;BME280;8720;48.488;9.202;2022-11-20T04:36:53;96534.28;;;11.77;55.14
17209;BME280;8720;48.488;9.202;2022-11-20T04:39:22;96529.91;;;11.78;55.05
17209;BME280;8720;48.488;9.202;2022-11-20T04:41:49;96528.00;;;11.81;55.16
17209;BME280;8720;48.488;9.202;2022-11-20T04:44:37;96527.09;;;11.82;55.15
17209;BME280;8720;48.488;9.202;2022-11-20T04:47:04;96530.44;;;11.86;55.11
17209;BME280;8720;48.488;9.202;2022-11-20T04:49:32;96531.22;;;11.90;55.00
17209;BME280;8720;48.488;9.202;2022-11-20T04:51:59;96531.16;;;11.91;54.90
17209;BME280;8720;48.488;9.202;2022-11-20T04:54:28;96533.63;;;11.94;54.92
17209;BME280;8720;48.488;9.202;2022-11-20T04:56:57;96531.81;;;11.96;54.84
17209;BME280;8720;48.488;9.202;2022-11-20T04:59:25;96525.72;;;11.96;54.62
17209;BME280;8720;48.488;9.202;2022-11-20T05:01:52;96530.13;;;11.95;54.70
17209;BME280;8720;48.488;9.202;2022-11-20T05:04:19;96527.50;;;11.95;54.66
17209;BME280;8720;48.488;9.202;2022-11-20T05:06:46;96523.16;;;11.94;54.47
17209;BME280;8720;48.488;9.202;2022-11-20T05:09:13;96532.63;;;11.98;54.50
17209;BME280;8720;48.488;9.202;2022-11-20T05:11:42;96531.72;;;11.99;54.41
17209;BME280;8720;48.488;9.202;2022-11-20T05:14:09;96530.84;;;11.99;54.07
17209;BME280;8720;48.488;9.202;2022-11-20T05:16:41;96521.25;;;11.98;54.17
17209;BME280;8720;48.488;9.202;2022-11-20T05:19:08;96522.25;;;11.95;54.41
17209;BME280;8720;48.488;9.202;2022-11-20T05:21:36;96520.53;;;11.94;54.20
17209;BME280;8720;48.488;9.202;2022-11-20T05:24:03;96525.78;;;11.94;54.13
17209;BME280;8720;48.488;9.202;2022-11-20T05:26:31;96520.75;;;11.88;54.09
17209;BME280;8720;48.488;9.202;2022-11-20T05:29:00;96523.22;;;11.93;54.21
17209;BME280;8720;48.488;9.202;2022-11-20T05:31:27;96518.09;;;11.90;54.34
17209;BME280;8720;48.488;9.202;2022-11-20T05:33:56;96519.72;;;11.92;54.25
17209;BME280;8720;48.488;9.202;2022-11-20T05:36:24;96520.59;;;11.93;53.91
17209;BME280;8720;48.488;9.202;2022-11-20T05:38:54;96528.53;;;11.91;54.09
17209;BME280;8720;48.488;9.202;2022-11-20T05:41:22;96517.19;;;11.91;54.01
17209;BME280;8720;48.488;9.202;2022-11-20T05:43:50;96516.44;;;11.87;54.05
17209;BME280;8720;48.488;9.202;2022-11-20T05:46:20;96513.03;;;11.85;54.04
17209;BME280;8720;48.488;9.202;2022-11-20T05:48:47;96519.22;;;11.82;54.02
17209;BME280;8720;48.488;9.202;2022-11-20T05:51:18;96514.91;;;11.81;53.91
17209;BME280;8720;48.488;9.202;2022-11-20T05:53:45;96515.06;;;11.77;53.90
17209;BME280;8720;48.488;9.202;2022-11-20T05:56:15;96523.00;;;11.75;53.93
17209;BME280;8720;48.488;9.202;2022-11-20T05:58:44;96522.19;;;11.73;53.89
17209;BME280;8720;48.488;9.202;2022-11-20T06:01:16;96524.75;;;11.75;53.74
17209;BME280;8720;48.488;9.202;2022-11-20T06:03:46;96519.63;;;11.72;53.74
17209;BME280;8720;48.488;9.202;2022-11-20T06:06:14;96518.75;;;11.71;54.02
17209;BME280;8720;48.488;9.202;2022-11-20T06:08:42;96523.06;;;11.72;53.71
17209;BME280;8720;48.488;9.202;2022-11-20T06:11:14;96516.16;;;11.71;53.58
17209;BME280;8720;48.488;9.202;2022-11-20T06:13:42;96509.31;;;11.67;53.87
17209;BME280;8720;48.488;9.202;2022-11-20T06:16:10;96516.41;;;11.64;54.00
17209;BME280;8720;48.488;9.202;2022-11-20T06:18:39;96518.16;;;11.63;53.95
17209;BME280;8720;48.488;9.202;2022-11-20T06:21:10;96518.22;;;11.62;53.69
17209;BME280;8720;48.488;9.202;2022-11-20T06:23:38;96515.66;;;11.60;53.93
17209;BME280;8720;48.488;9.202;2022-11-20T06:26:08;96513.94;;;11.59;53.80
17209;BME280;8720;48.488;9.202;2022-11-20T06:28:35;96512.22;;;11.58;54.01
17209;BME280;8720;48.488;9.202;2022-11-20T06:31:04;96514.06;;;11.56;54.09
17209;BME280;8720;48.488;9.202;2022-11-20T06:33:31;96523.66;;;11.56;54.07
17209;BME280;8720;48.488;9.202;2022-11-20T06:36:00;96497.81;;;11.47;54.20
17209;BME280;8720;48.488;9.202;2022-11-20T06:38:29;96509.78;;;11.54;53.97
17209;BME280;8720;48.488;9.202;2022-11-20T06:40:58;96514.16;;;11.53;54.12
17209;BME280;8720;48.488;9.202;2022-11-20T06:43:26;96515.97;;;11.51;54.01
17209;BME280;8720;48.488;9.202;2022-11-20T06:45:57;96522.78;;;11.57;54.06
17209;BME280;8720;48.488;9.202;2022-11-20T06:48:26;96515.75;;;11.57;53.83
17209;BME280;8720;48.488;9.202;2022-11-20T06:50:54;96528.00;;;11.57;53.78
17209;BME280;8720;48.488;9.202;2022-11-20T06:53:22;96521.00;;;11.57;53.87
17209;BME280;8720;48.488;9.202;2022-11-20T06:55:52;96527.88;;;11.60;53.87
17209;BME280;8720;48.488;9.202;2022-11-20T06:58:19;96520.03;;;11.60;53.91
17209;BME280;8720;48.488;9.202;2022-11-20T07:00:46;96526.00;;;11.63;54.03
17209;BME280;8720;48.488;9.202;2022-11-20T07:03:13;96523.31;;;11.65;53.98
17209;BME280;8720;48.488;9.202;2022-11-20T07:05:41;96531.06;;;11.69;54.00
17209;BME280;8720;48.488;9.202;2022-11-20T07:08:09;96524.91;;;11.70;53.81
17209;BME280;8720;48.488;9.202;2022-11-20T07:10:36;96531.81;;;11.73;53.94
17209;BME280;8720;48.488;9.202;2022-11-20T07:13:05;96529.09;;;11.76;53.93
17209;BME280;8720;48.488;9.202;2022-11-20T07:15:32;96535.16;;;11.76;53.95
17209;BME280;8720;48.488;9.202;2022-11-20T07:18:00;96539.50;;;11.77;54.04
17209;BME280;8720;48.488;9.202;2022-11-20T07:20:27;96540.31;;;11.79;54.04
17209;BME280;8720;48.488;9.202;2022-11-20T07:22:56;96507.59;;;11.66;53.81
17209;BME280;8720;48.488;9.202;2022-11-20T07:25:24;96544.47;;;11.85;54.07
17209;BME280;8720;48.488;9.202;2022-11-20T07:27:57;96539.22;;;11.85;53.95
17209;BME280;8720;48.488;9.202;2022-11-20T07:30:28;96545.28;;;11.87;53.82
17209;BME280;8720;48.488;9.202;2022-11-20T07:32:56;96540.84;;;11.89;53.92
17209;BME280;8720;48.488;9.202;2022-11-20T07:35:24;96546.00;;;11.91;54.11
17209;BME280;8720;48.488;9.202;2022-11-20T07:37:51;96541.56;;;11.93;54.02
17209;BME280;8720;48.488;9.202;2022-11-20T07:40:19;96546.66;;;11.97;53.98
17209;BME280;8720;48.488;9.202;2022-11-20T07:42:50;96557.00;;;12.00;53.90
17209;BME280;8720;48.488;9.202;2022-11-20T07:45:18;96552.56;;;12.02;54.08
17209;BME280;8720;48.488;9.202;2022-11-20T07:47:47;96544.59;;;12.05;54.05
17209;BME280;8720;48.488;9.202;2022-11-20T07:50:16;96539.16;;;12.10;54.02
17209;BME280;8720;48.488;9.202;2022-11-20T07:52:43;96547.75;;;12.13;53.91
17209;BME280;8720;48.488;9.202;2022-11-20T07:55:11;96558.16;;;12.16;53.70
17209;BME280;8720;48.488;9.202;2022-11-20T07:57:38;96549.38;;;12.17;53.82
17209;BME280;8720;48.488;9.202;2022-11-20T08:00:09;96554.50;;;12.20;53.81
17209;BME280;8720;48.488;9.202;2022-11-20T08:02:40;96553.41;;;12.26;53.85
17209;BME280;8720;48.488;9.202;2022-11-20T08:05:10;96544.47;;;12.31;53.88
17209;BME280;8720;48.488;9.202;2022-11-20T08:07:37;96550.38;;;12.36;53.89
17209;BME280;8720;48.488;9.202;2022-11-20T08:10:07;96549.34;;;12.40;53.73
17209;BME280;8720;48.488;9.202;2022-11-20T08:12:34;96559.66;;;12.45;53.74
17209;BME280;8720;48.488;9.202;2022-11-20T08:15:19;96560.47;;;12.47;53.80
17209;BME280;8720;48.488;9.202;2022-11-20T08:17:47;96538.97;;;12.37;53.68
17209;BME280;8720;48.488;9.202;2022-11-20T08:20:15;96557.59;;;12.53;53.80
17209;BME280;8720;48.488;9.202;2022-11-20T08:22:44;96565.34;;;12.56;53.64
17209;BME280;8720;48.488;9.202;2022-11-20T08:25:11;96566.13;;;12.58;53.51
17209;BME280;8720;48.488;9.202;2022-11-20T08:27:38;96566.03;;;12.61;53.65
17209;BME280;8720;48.488;9.202;2022-11-20T08:30:07;96568.53;;;12.64;53.32
17209;BME280;8720;48.488;9.202;2022-11-20T08:32:35;96571.03;;;12.67;53.51
17209;BME280;8720;48.488;9.202;2022-11-20T08:35:04;96575.38;;;12.68;53.27
17209;BME280;8720;48.488;9.202;2022-11-20T08:37:32;96571.78;;;12.70;53.28
17209;BME280;8720;48.488;9.202;2022-11-20T08:40:00;96583.00;;;12.74;53.16
17209;BME280;8720;48.488;9.202;2022-11-20T08:42:27;96570.69;;;12.76;53.27
17209;BME280;8720;48.488;9.202;2022-11-20T08:44:54;96580.19;;;12.78;53.39
17209;BME280;8720;48.488;9.202;2022-11-20T08:47:22;96577.44;;;12.82;53.25
17209;BME280;8720;48.488;9.202;2022-11-20T08:49:49;96581.75;;;12.84;53.02
17209;BME280;8720;48.488;9.202;2022-11-20T08:52:17;96580.75;;;12.87;53.06
17209;BME280;8720;48.488;9.202;2022-11-20T08:54:45;96588.50;;;12.90;53.21
17209;BME280;8720;48.488;9.202;2022-11-20T08:57:12;96581.28;;;12.95;53.29
17209;BME280;8720;48.488;9.202;2022-11-20T08:59:40;96594.09;;;13.02;53.15
17209;BME280;8720;48.488;9.202;2022-11-20T09:02:08;96578.31;;;13.04;53.05
17209;BME280;8720;48.488;9.202;2022-11-20T09:04:35;96582.50;;;13.09;53.07
17209;BME280;8720;48.488;9.202;2022-11-20T09:07:03;96589.38;;;13.12;53.11
17209;BME280;8720;48.488;9.202;2022-11-20T09:09:30;96576.97;;;13.15;53.00
17209;BME280;8720;48.488;9.202;2022-11-20T09:11:59;96579.47;;;13.18;52.94
17209;BME280;8720;48.488;9.202;2022-11-20T09:14:27;96585.53;;;13.20;52.91
17209;BME280;8720;48.488;9.202;2022-11-20T09:16:56;96584.66;;;13.20;53.06
17209;BME280;8720;48.488;9.202;2022-11-20T09:19:24;96590.63;;;13.23;53.17
17209;BME280;8720;48.488;9.202;2022-11-20T09:21:51;96589.75;;;13.24;53.11
17209;BME280;8720;48.488;9.202;2022-11-20T09:24:19;96587.16;;;13.23;53.34
17209;BME280;8720;48.488;9.202;2022-11-20T09:26:47;96592.41;;;13.23;53.08
17209;BME280;8720;48.488;9.202;2022-11-20T09:29:16;96589.84;;;13.21;52.96
17209;BME280;8720;48.488;9.202;2022-11-20T09:31:43;96592.47;;;13.21;53.08
17209;BME280;8720;48.488;9.202;2022-11-20T09:34:11;96595.09;;;13.21;52.94
17209;BME280;8720;48.488;9.202;2022-11-20T09:36:38;96594.28;;;13.21;52.95
17209;BME280;8720;48.488;9.202;2022-11-20T09:39:05;96603.84;;;13.22;53.14
17209;BME280;8720;48.488;9.202;2022-11-20T09:42:00;96599.53;;;13.21;53.22
17209;BME280;8720;48.488;9.202;2022-11-20T09:44:49;96604.78;;;13.21;53.35
17209;BME280;8720;48.488;9.202;2022-11-20T09:47:33;96606.47;;;13.22;53.34
17209;BME280;8720;48.488;9.202;2022-11-20T09:50:25;96609.09;;;13.22;53.53
17209;BME280;8720;48.488;9.202;2022-11-20T09:53:12;96617.78;;;13.24;53.62
17209;BME280;8720;48.488;9.202;2022-11-20T09:55:40;96618.66;;;13.23;53.64
17209;BME280;8720;48.488;9.202;2022-11-20T09:58:16;96611.84;;;13.19;53.55
17209;BME280;8720;48.488;9.202;2022-11-20T10:00:51;96619.91;;;13.14;53.61
17209;BME280;8720;48.488;9.202;2022-11-20T10:03:37;96620.94;;;13.10;53.61
17209;BME280;8720;48.488;9.202;2022-11-20T10:06:12;96612.44;;;13.04;53.74
17209;BME280;8720;48.488;9.202;2022-11-20T10:08:45;96615.88;;;13.06;53.53
17209;BME280;8720;48.488;9.202;2022-11-20T10:11:26;96624.69;;;13.05;53.77
17209;BME280;8720;48.488;9.202;2022-11-20T10:14:17;96614.19;;;13.05;54.22
17209;BME280;8720;48.488;9.202;2022-11-20T10:17:08;96618.50;;;13.06;54.33
17209;BME280;8720;48.488;9.202;2022-11-20T10:19:55;96599.34;;;13.02;54.39
17209;BME280;8720;48.488;9.202;2022-11-20T10:22:56;96620.09;;;13.10;54.17
17209;BME280;8720;48.488;9.202;2022-11-20T10:25:38;96618.31;;;13.10;54.06
17209;BME280;8720;48.488;9.202;2022-11-20T10:28:42;96611.38;;;13.09;54.41
17209;BME280;8720;48.488;9.202;2022-11-20T10:31:31;96625.28;;;13.11;54.22
17209;BME280;8720;48.488;9.202;2022-11-20T10:34:07;96610.31;;;13.13;54.17
17209;BME280;8720;48.488;9.202;2022-11-20T10:36:45;96612.75;;;13.18;54.26
17209;BME280;8720;48.488;9.202;2022-11-20T10:39:25;96617.91;;;13.21;54.37
17209;BME280;8720;48.488;9.202;2022-11-20T10:41:56;96609.09;;;13.22;54.30
17209;BME280;8720;48.488;9.202;2022-11-20T10:44:29;96613.31;;;13.26;54.05
17209;BME280;8720;48.488;9.202;2022-11-20T10:47:17;96603.69;;;13.25;54.06
17209;BME280;8720;48.488;9.202;2022-11-20T10:49:56;96608.91;;;13.26;54.21
17209;BME280;8720;48.488;9.202;2022-11-20T10:52:37;96610.44;;;13.32;54.26
17209;BME280;8720;48.488;9.202;2022-11-20T10:55:24;96595.31;;;13.37;54.55
17209;BME280;8720;48.488;9.202;2022-11-20T10:58:10;96600.31;;;13.43;54.50
17209;BME280;8720;48.488;9.202;2022-11-20T11:00:40;96592.38;;;13.44;54.17
17209;BME280;8720;48.488;9.202;2022-11-20T11:03:23;96598.41;;;13.46;54.21
17209;BME280;8720;48.488;9.202;2022-11-20T11:06:03;96593.88;;;13.50;54.20
17209;BME280;8720;48.488;9.202;2022-11-20T11:08:38;96599.81;;;13.55;54.20
17209;BME280;8720;48.488;9.202;2022-11-20T11:11:24;96585.88;;;13.53;54.12
17209;BME280;8720;48.488;9.202;2022-11-20T11:14:06;96604.69;;;13.64;54.24
17209;BME280;8720;48.488;9.202;2022-11-20T11:16:34;96596.78;;;13.64;54.07
17209;BME280;8720;48.488;9.202;2022-11-20T11:19:06;96596.78;;;13.64;54.24
17209;BME280;8720;48.488;9.202;2022-11-20T11:21:35;96591.47;;;13.65;54.17
17209;BME280;8720;48.488;9.202;2022-11-20T11:24:20;96584.38;;;13.67;54.47
17209;BME280;8720;48.488;9.202;2022-11-20T11:26:59;96580.75;;;13.70;54.31
17209;BME280;8720;48.488;9.202;2022-11-20T11:29:31;96566.81;;;13.68;54.55
17209;BME280;8720;48.488;9.202;2022-11-20T11:32:07;96577.59;;;13.82;54.25
17209;BME280;8720;48.488;9.202;2022-11-20T11:34:35;96574.56;;;13.91;54.46
17209;BME280;8720;48.488;9.202;2022-11-20T11:37:11;96560.44;;;13.94;54.24
17209;BME280;8720;48.488;9.202;2022-11-20T11:39:42;96557.22;;;14.06;54.15
17209;BME280;8720;48.488;9.202;2022-11-20T11:42:17;96567.44;;;14.13;54.26
17209;BME280;8720;48.488;9.202;2022-11-20T11:44:49;96554.06;;;14.18;54.26
17209;BME280;8720;48.488;9.202;2022-11-20T11:47:42;96561.50;;;14.28;54.16
17209;BME280;8720;48.488;9.202;2022-11-20T11:50:18;96562.94;;;14.35;53.92
17209;BME280;8720;48.488;9.202;2022-11-20T11:53:08;96543.34;;;14.41;53.94
17209;BME280;8720;48.488;9.202;2022-11-20T11:55:42;96551.91;;;14.46;53.85
17209;BME280;8720;48.488;9.202;2022-11-20T11:58:22;96548.97;;;14.52;53.85
17209;BME280;8720;48.488;9.202;2022-11-20T12:00:57;96542.63;;;14.56;53.35
17209;BME280;8720;48.488;9.202;2022-11-20T12:03:34;96545.06;;;14.61;53.31
17209;BME280;8720;48.488;9.202;2022-11-20T12:06:10;96542.34;;;14.62;53.30
17209;BME280;8720;48.488;9.202;2022-11-20T12:08:48;96534.69;;;14.57;53.17
17209;BME280;8720;48.488;9.202;2022-11-20T12:11:29;96538.72;;;14.65;53.06
17209;BME280;8720;48.488;9.202;2022-11-20T12:14:03;96534.09;;;14.70;52.83
17209;BME280;8720;48.488;9.202;2022-11-20T12:16:37;96534.75;;;14.75;52.87
17209;BME280;8720;48.488;9.202;2022-11-20T12:19:11;96533.66;;;14.79;52.37
17209;BME280;8720;48.488;9.202;2022-11-20T12:21:53;96531.81;;;14.81;52.69
17209;BME280;8720;48.488;9.202;2022-11-20T12:24:44;96522.97;;;14.82;52.25
17209;BME280;8720;48.488;9.202;2022-11-20T12:27:54;96519.84;;;14.74;52.71
17209;BME280;8720;48.488;9.202;2022-11-20T12:30:26;96522.47;;;14.74;52.10
17209;BME280;8720;48.488;9.202;2022-11-20T12:33:17;96517.59;;;14.66;52.27
17209;BME280;8720;48.488;9.202;2022-11-20T12:36:11;96518.03;;;14.57;52.06
17209;BME280;8720;48.488;9.202;2022-11-20T12:39:07;96512.19;;;14.50;52.10
17209;BME280;8720;48.488;9.202;2022-11-20T12:42:02;96514.03;;;14.48;52.23
17209;BME280;8720;48.488;9.202;2022-11-20T12:45:25;96503.97;;;14.39;52.99
17209;BME280;8720;48.488;9.202;2022-11-20T12:48:52;96520.53;;;14.41;53.10
17209;BME280;8720;48.488;9.202;2022-11-20T12:51:56;96515.63;;;14.34;52.98
17209;BME280;8720;48.488;9.202;2022-11-20T12:55:06;96503.38;;;14.51;49.43
17209;BME280;8720;48.488;9.202;2022-11-20T12:57:50;96516.84;;;14.45;50.70
17209;BME280;8720;48.488;9.202;2022-11-20T13:00:22;96518.69;;;14.43;51.13
17209;BME280;8720;48.488;9.202;2022-11-20T13:03:34;96522.53;;;14.36;51.71
17209;BME280;8720;48.488;9.202;2022-11-20T13:06:14;96517.56;;;14.30;51.71
17209;BME280;8720;48.488;9.202;2022-11-20T13:08:47;96519.97;;;14.35;51.59
17209;BME280;8720;48.488;9.202;2022-11-20T13:11:23;96514.94;;;14.30;51.33
17209;BME280;8720;48.488;9.202;2022-11-20T13:14:12;96517.69;;;14.27;51.78
17209;BME280;8720;48.488;9.202;2022-11-20T13:16:49;96508.28;;;14.22;51.46
17209;BME280;8720;48.488;9.202;2022-11-20T13:19:19;96503.88;;;14.22;51.35
17209;BME280;8720;48.488;9.202;2022-11-20T13:21:49;96506.41;;;14.24;51.54
17209;BME280;8720;48.488;9.202;2022-11-20T13:24:26;96508.19;;;14.23;51.48
17209;BME280;8720;48.488;9.202;2022-11-20T13:27:20;96503.00;;;14.22;51.59
17209;BME280;8720;48.488;9.202;2022-11-20T13:30:14;96512.66;;;14.21;52.06
17209;BME280;8720;48.488;9.202;2022-11-20T13:32:55;96500.47;;;14.20;51.75
17209;BME280;8720;48.488;9.202;2022-11-20T13:35:29;96499.59;;;14.20;51.55
17209;BME280;8720;48.488;9.202;2022-11-20T13:38:05;96499.59;;;14.20;51.60
17209;BME280;8720;48.488;9.202;2022-11-20T13:40:38;96500.38;;;14.22;51.50
17209;BME280;8720;48.488;9.202;2022-11-20T13:43:22;96494.34;;;14.20;51.62